createdAt,value
2022-11-13T00:00:30.470Z,0.99
2022-11-13T00:01:01.862Z,0.98
2022-11-13T00:01:33.263Z,0.89
2022-11-13T00:02:04.699Z,0.63
2022-11-13T00:02:36.125Z,0.90
2022-11-13T00:03:07.565Z,0.92
2022-11-13T00:03:38.951Z,0.75
2022-11-13T00:04:10.350Z,0.87
2022-11-13T00:04:41.810Z,0.89
2022-11-13T00:05:13.195Z,0.80
2022-11-13T00:05:44.585Z,0.95
2022-11-13T00:06:15.965Z,0.86
2022-11-13T00:06:47.388Z,1.04
2022-11-13T00:07:18.842Z,0.94
2022-11-13T00:07:50.237Z,1.03
2022-11-13T00:08:21.623Z,0.88
2022-11-13T00:08:53.028Z,0.88
2022-11-13T00:09:24.422Z,0.83
2022-11-13T00:09:55.872Z,0.93
2022-11-13T00:10:27.281Z,0.95
2022-11-13T00:10:58.684Z,0.94
2022-11-13T00:11:30.099Z,0.86
2022-11-13T00:12:01.506Z,0.93
2022-11-13T00:12:32.903Z,0.94
2022-11-13T00:13:04.310Z,0.80
2022-11-13T00:13:35.786Z,0.80
2022-11-13T00:14:07.186Z,0.70
2022-11-13T00:14:38.586Z,0.83
2022-11-13T00:15:10.040Z,0.99
2022-11-13T00:15:41.467Z,0.79
2022-11-13T00:16:12.875Z,0.87
2022-11-13T00:16:44.257Z,0.94
2022-11-13T00:17:15.644Z,0.84
2022-11-13T00:17:47.030Z,0.69
2022-11-13T00:18:18.429Z,0.78
2022-11-13T00:18:49.820Z,0.79
2022-11-13T00:19:21.210Z,0.96
2022-11-13T00:19:52.600Z,0.93
2022-11-13T00:20:24.031Z,0.67
2022-11-13T00:20:55.414Z,0.85
2022-11-13T00:21:26.804Z,0.81
2022-11-13T00:21:58.210Z,0.66
2022-11-13T00:22:29.595Z,1.08
2022-11-13T00:23:00.985Z,1.12
2022-11-13T00:23:32.400Z,0.98
2022-11-13T00:24:03.824Z,0.87
2022-11-13T00:24:35.219Z,1.01
2022-11-13T00:25:06.619Z,0.62
2022-11-13T00:25:38.142Z,0.91
2022-11-13T00:26:09.547Z,0.90
2022-11-13T00:26:40.943Z,0.91
2022-11-13T00:27:12.334Z,0.73
2022-11-13T00:27:43.727Z,1.05
2022-11-13T00:28:15.144Z,1.11
2022-11-13T00:28:46.762Z,0.98
2022-11-13T00:29:18.178Z,0.94
2022-11-13T00:29:49.570Z,0.81
2022-11-13T00:30:20.968Z,0.83
2022-11-13T00:30:52.502Z,0.68
2022-11-13T00:31:23.912Z,0.91
2022-11-13T00:31:55.304Z,0.74
2022-11-13T00:32:26.712Z,0.95
2022-11-13T00:32:58.118Z,1.07
2022-11-13T00:33:54.843Z,0.77
2022-11-13T00:34:45.879Z,0.75
2022-11-13T00:35:12.271Z,0.71
2022-11-13T00:35:43.667Z,0.88
2022-11-13T00:36:15.185Z,0.76
2022-11-13T00:36:46.581Z,0.99
2022-11-13T00:37:17.967Z,0.78
2022-11-13T00:37:49.358Z,1.03
2022-11-13T00:38:20.755Z,0.65
2022-11-13T00:38:52.149Z,0.77
2022-11-13T00:39:23.555Z,0.85
2022-11-13T00:39:59.527Z,0.65
2022-11-13T00:40:31.268Z,0.92
2022-11-13T00:41:02.748Z,0.69
2022-11-13T00:41:34.237Z,0.97
2022-11-13T00:42:05.631Z,0.73
2022-11-13T00:42:37.023Z,0.74
2022-11-13T00:43:08.411Z,0.72
2022-11-13T00:43:39.808Z,0.95
2022-11-13T00:44:11.230Z,0.99
2022-11-13T00:44:42.615Z,0.99
2022-11-13T00:45:14.037Z,0.83
2022-11-13T00:45:45.427Z,0.61
2022-11-13T00:46:16.831Z,0.78
2022-11-13T00:46:48.269Z,0.55
2022-11-13T00:47:19.664Z,0.86
2022-11-13T00:47:51.058Z,0.68
2022-11-13T00:48:22.450Z,0.84
2022-11-13T00:48:53.859Z,0.64
2022-11-13T00:49:25.259Z,0.80
2022-11-13T00:49:56.648Z,0.96
2022-11-13T00:50:28.035Z,0.84
2022-11-13T00:50:59.420Z,0.73
2022-11-13T00:51:30.842Z,0.95
2022-11-13T00:52:02.275Z,0.76
2022-11-13T00:52:33.680Z,0.62
2022-11-13T00:53:05.087Z,0.67
2022-11-13T00:53:36.479Z,0.77
2022-11-13T00:54:07.887Z,0.77
2022-11-13T00:54:39.270Z,0.95
2022-11-13T00:55:10.677Z,0.64
2022-11-13T00:55:42.068Z,0.85
2022-11-13T00:56:13.458Z,0.65
2022-11-13T00:56:44.847Z,0.83
2022-11-13T00:57:16.321Z,0.80
2022-11-13T00:57:47.714Z,0.88
2022-11-13T00:58:19.109Z,0.81
2022-11-13T00:58:50.535Z,0.91
2022-11-13T00:59:21.927Z,0.75
2022-11-13T00:59:53.327Z,0.64
2022-11-13T01:00:24.714Z,0.92
2022-11-13T01:00:56.120Z,0.90
2022-11-13T01:01:27.579Z,0.85
2022-11-13T01:01:59.083Z,0.81
2022-11-13T01:02:30.583Z,0.76
2022-11-13T01:03:01.987Z,1.10
2022-11-13T01:03:33.397Z,0.75
2022-11-13T01:04:04.790Z,0.76
2022-11-13T01:04:36.173Z,0.84
2022-11-13T01:05:07.578Z,0.94
2022-11-13T01:05:38.968Z,0.80
2022-11-13T01:06:10.372Z,0.87
2022-11-13T01:06:41.806Z,1.05
2022-11-13T01:07:13.239Z,0.63
2022-11-13T01:07:44.751Z,0.67
2022-11-13T01:08:16.144Z,0.98
2022-11-13T01:08:47.564Z,0.74
2022-11-13T01:09:18.973Z,0.63
2022-11-13T01:09:50.364Z,0.76
2022-11-13T01:10:21.755Z,0.98
2022-11-13T01:10:53.991Z,0.92
2022-11-13T01:11:25.525Z,0.87
2022-11-13T01:11:56.910Z,0.81
2022-11-13T01:12:28.294Z,1.00
2022-11-13T01:12:59.828Z,0.67
2022-11-13T01:13:31.217Z,1.12
2022-11-13T01:14:02.618Z,0.88
2022-11-13T01:14:34.030Z,0.82
2022-11-13T01:15:05.419Z,1.03
2022-11-13T01:15:36.812Z,0.83
2022-11-13T01:16:08.218Z,0.49
2022-11-13T01:16:39.612Z,0.79
2022-11-13T01:17:11.023Z,0.72
2022-11-13T01:17:42.412Z,0.95
2022-11-13T01:18:13.853Z,0.63
2022-11-13T01:18:45.244Z,0.89
2022-11-13T01:19:16.663Z,0.83
2022-11-13T01:19:48.053Z,0.81
2022-11-13T01:20:19.448Z,1.15
2022-11-13T01:20:50.834Z,0.77
2022-11-13T01:21:22.245Z,0.95
2022-11-13T01:21:53.640Z,0.64
2022-11-13T01:22:25.046Z,0.73
2022-11-13T01:22:56.443Z,0.90
2022-11-13T01:23:27.951Z,0.84
2022-11-13T01:23:59.357Z,0.80
2022-11-13T01:24:30.742Z,1.07
2022-11-13T01:25:02.159Z,0.60
2022-11-13T01:25:33.561Z,0.76
2022-11-13T01:26:04.963Z,1.03
2022-11-13T01:26:36.356Z,0.91
2022-11-13T01:27:07.747Z,0.87
2022-11-13T01:27:39.139Z,0.55
2022-11-13T01:28:10.529Z,0.58
2022-11-13T01:28:42.029Z,0.81
2022-11-13T01:29:13.447Z,0.96
2022-11-13T01:29:44.847Z,0.84
2022-11-13T01:30:16.251Z,0.70
2022-11-13T01:30:47.649Z,0.75
2022-11-13T01:31:19.043Z,0.62
2022-11-13T01:31:50.451Z,0.92
2022-11-13T01:32:21.851Z,0.96
2022-11-13T01:32:53.260Z,0.65
2022-11-13T01:33:24.661Z,0.82
2022-11-13T01:33:56.171Z,0.52
2022-11-13T01:34:27.581Z,0.68
2022-11-13T01:34:58.972Z,0.84
2022-11-13T01:35:30.377Z,0.64
2022-11-13T01:36:01.786Z,0.66
2022-11-13T01:36:33.173Z,0.73
2022-11-13T01:37:04.586Z,0.86
2022-11-13T01:37:35.997Z,0.88
2022-11-13T01:38:07.402Z,0.93
2022-11-13T01:38:38.871Z,0.94
2022-11-13T01:39:10.530Z,0.82
2022-11-13T01:39:41.917Z,0.64
2022-11-13T01:40:13.348Z,0.66
2022-11-13T01:40:44.739Z,0.75
2022-11-13T01:41:21.843Z,0.90
2022-11-13T01:41:54.692Z,0.75
2022-11-13T01:42:26.090Z,0.53
2022-11-13T01:42:57.476Z,0.72
2022-11-13T01:43:28.862Z,0.61
2022-11-13T01:44:00.349Z,0.86
2022-11-13T01:44:31.734Z,0.90
2022-11-13T01:45:03.143Z,0.66
2022-11-13T01:45:34.574Z,0.82
2022-11-13T01:46:05.960Z,0.99
2022-11-13T01:46:37.357Z,0.69
2022-11-13T01:47:08.756Z,0.71
2022-11-13T01:47:40.153Z,0.91
2022-11-13T01:48:11.539Z,0.61
2022-11-13T01:48:42.957Z,0.94
2022-11-13T01:49:14.383Z,0.60
2022-11-13T01:49:45.775Z,0.57
2022-11-13T01:50:17.176Z,0.45
2022-11-13T01:50:48.562Z,0.54
2022-11-13T01:51:19.950Z,0.82
2022-11-13T01:51:51.350Z,0.76
2022-11-13T01:52:22.753Z,0.64
2022-11-13T01:52:54.163Z,0.66
2022-11-13T01:53:25.553Z,0.68
2022-11-13T01:53:56.943Z,1.01
2022-11-13T01:54:28.458Z,0.67
2022-11-13T01:54:59.854Z,0.81
2022-11-13T01:55:31.399Z,0.73
2022-11-13T01:56:02.798Z,0.55
2022-11-13T01:56:34.228Z,0.78
2022-11-13T01:57:05.615Z,0.83
2022-11-13T01:57:37.008Z,0.54
2022-11-13T01:58:08.415Z,0.67
2022-11-13T01:58:39.822Z,0.85
2022-11-13T01:59:11.215Z,0.74
2022-11-13T01:59:42.706Z,1.00
2022-11-13T02:00:14.118Z,0.87
2022-11-13T02:00:45.528Z,0.64
2022-11-13T02:01:17.051Z,0.63
2022-11-13T02:01:48.623Z,1.00
2022-11-13T02:02:20.106Z,0.70
2022-11-13T02:02:51.486Z,0.60
2022-11-13T02:03:22.905Z,0.83
2022-11-13T02:03:54.295Z,0.54
2022-11-13T02:04:25.688Z,0.74
2022-11-13T02:04:57.195Z,0.63
2022-11-13T02:05:28.583Z,0.84
2022-11-13T02:05:59.970Z,0.82
2022-11-13T02:06:31.371Z,0.75
2022-11-13T02:07:02.857Z,0.83
2022-11-13T02:07:34.294Z,1.04
2022-11-13T02:08:05.702Z,0.89
2022-11-13T02:08:37.104Z,0.66
2022-11-13T02:09:08.509Z,1.01
2022-11-13T02:09:39.890Z,0.72
2022-11-13T02:10:11.319Z,0.93
2022-11-13T02:10:42.710Z,1.01
2022-11-13T02:11:14.098Z,1.01
2022-11-13T02:11:45.486Z,0.66
2022-11-13T02:12:16.893Z,0.74
2022-11-13T02:12:48.292Z,0.78
2022-11-13T02:13:19.682Z,0.85
2022-11-13T02:13:51.086Z,0.85
2022-11-13T02:14:22.479Z,0.66
2022-11-13T02:14:53.867Z,0.60
2022-11-13T02:15:25.395Z,0.58
2022-11-13T02:15:56.844Z,0.74
2022-11-13T02:16:28.241Z,0.69
2022-11-13T02:16:59.663Z,0.78
2022-11-13T02:17:31.060Z,0.88
2022-11-13T02:18:02.457Z,0.82
2022-11-13T02:18:33.856Z,0.74
2022-11-13T02:19:05.266Z,0.78
2022-11-13T02:19:36.681Z,0.66
2022-11-13T02:20:08.090Z,0.75
2022-11-13T02:20:39.563Z,0.87
2022-11-13T02:21:10.975Z,0.93
2022-11-13T02:21:42.364Z,1.02
2022-11-13T02:22:13.810Z,1.06
2022-11-13T02:22:45.190Z,0.97
2022-11-13T02:23:16.647Z,0.79
2022-11-13T02:23:48.059Z,0.92
2022-11-13T02:24:19.450Z,0.80
2022-11-13T02:24:54.682Z,0.67
2022-11-13T02:25:26.359Z,1.04
2022-11-13T02:25:57.796Z,0.91
2022-11-13T02:26:29.202Z,0.90
2022-11-13T02:27:00.607Z,0.80
2022-11-13T02:27:31.999Z,0.75
2022-11-13T02:28:03.392Z,0.88
2022-11-13T02:28:34.780Z,0.96
2022-11-13T02:29:06.172Z,0.77
2022-11-13T02:29:37.588Z,0.85
2022-11-13T02:30:11.669Z,1.02
2022-11-13T02:30:45.485Z,0.95
2022-11-13T02:31:17.001Z,0.99
2022-11-13T02:31:48.416Z,0.77
2022-11-13T02:32:19.814Z,0.71
2022-11-13T02:32:51.223Z,0.86
2022-11-13T02:33:22.627Z,0.74
2022-11-13T02:33:54.119Z,0.75
2022-11-13T02:34:25.504Z,0.68
2022-11-13T02:34:56.912Z,0.75
2022-11-13T02:35:28.322Z,0.79
2022-11-13T02:35:59.715Z,0.86
2022-11-13T02:36:31.103Z,0.87
2022-11-13T02:37:02.518Z,0.67
2022-11-13T02:37:33.904Z,0.68
2022-11-13T02:38:05.295Z,1.15
2022-11-13T02:38:36.679Z,0.89
2022-11-13T02:39:08.153Z,1.15
2022-11-13T02:39:39.631Z,0.88
2022-11-13T02:40:11.042Z,0.84
2022-11-13T02:40:42.603Z,0.75
2022-11-13T02:41:13.995Z,0.71
2022-11-13T02:41:45.537Z,0.86
2022-11-13T02:42:16.943Z,0.70
2022-11-13T02:42:48.349Z,0.94
2022-11-13T02:43:19.741Z,0.82
2022-11-13T02:43:51.131Z,0.71
2022-11-13T02:44:22.575Z,0.88
2022-11-13T02:44:53.969Z,0.88
2022-11-13T02:45:25.362Z,0.76
2022-11-13T02:45:56.773Z,0.59
2022-11-13T02:46:28.169Z,0.71
2022-11-13T02:46:59.591Z,0.76
2022-11-13T02:47:30.974Z,0.90
2022-11-13T02:48:02.384Z,0.96
2022-11-13T02:48:33.776Z,1.02
2022-11-13T02:49:05.166Z,1.17
2022-11-13T02:49:36.559Z,0.84
2022-11-13T02:50:07.947Z,1.01
2022-11-13T02:50:39.356Z,0.95
2022-11-13T02:51:10.806Z,0.86
2022-11-13T02:51:42.199Z,0.99
2022-11-13T02:52:13.690Z,1.24
2022-11-13T02:52:45.193Z,0.89
2022-11-13T02:53:16.621Z,1.65
2022-11-13T02:53:48.010Z,0.98
2022-11-13T02:54:19.403Z,1.10
2022-11-13T02:54:50.787Z,0.69
2022-11-13T02:55:22.174Z,0.97
2022-11-13T02:55:53.564Z,1.00
2022-11-13T02:56:24.983Z,0.67
2022-11-13T02:56:56.376Z,1.02
2022-11-13T02:57:27.810Z,0.95
2022-11-13T02:57:59.207Z,0.85
2022-11-13T02:58:31.015Z,0.97
2022-11-13T02:59:02.645Z,0.86
2022-11-13T02:59:34.032Z,0.84
2022-11-13T03:00:10.549Z,0.82
2022-11-13T03:00:44.869Z,0.62
2022-11-13T03:01:16.334Z,0.93
2022-11-13T03:01:47.814Z,0.96
2022-11-13T03:02:19.257Z,0.91
2022-11-13T03:02:50.795Z,0.83
2022-11-13T03:03:48.065Z,0.76
2022-11-13T03:04:13.579Z,0.86
2022-11-13T03:05:10.989Z,0.92
2022-11-13T03:05:36.428Z,0.90
2022-11-13T03:06:07.830Z,1.16
2022-11-13T03:06:39.289Z,1.25
2022-11-13T03:07:10.774Z,0.87
2022-11-13T03:07:42.232Z,0.95
2022-11-13T03:08:13.667Z,0.93
2022-11-13T03:08:45.058Z,0.88
2022-11-13T03:09:16.447Z,0.85
2022-11-13T03:09:47.837Z,1.19
2022-11-13T03:10:19.228Z,0.80
2022-11-13T03:10:50.643Z,0.98
2022-11-13T03:11:22.046Z,0.88
2022-11-13T03:11:53.440Z,1.27
2022-11-13T03:12:24.850Z,1.01
2022-11-13T03:12:56.257Z,0.78
2022-11-13T03:13:27.703Z,0.93
2022-11-13T03:13:59.114Z,1.24
2022-11-13T03:14:30.598Z,1.25
2022-11-13T03:15:01.998Z,0.85
2022-11-13T03:15:33.386Z,0.93
2022-11-13T03:16:04.776Z,0.92
2022-11-13T03:16:36.175Z,0.96
2022-11-13T03:17:07.586Z,1.02
2022-11-13T03:17:38.967Z,0.87
2022-11-13T03:18:10.355Z,0.95
2022-11-13T03:18:41.881Z,0.77
2022-11-13T03:19:13.272Z,0.79
2022-11-13T03:19:44.662Z,0.97
2022-11-13T03:20:16.124Z,0.94
2022-11-13T03:20:47.519Z,1.23
2022-11-13T03:21:18.916Z,0.88
2022-11-13T03:21:50.355Z,1.10
2022-11-13T03:22:21.767Z,1.16
2022-11-13T03:22:53.179Z,0.94
2022-11-13T03:23:24.586Z,0.85
2022-11-13T03:23:56.040Z,1.12
2022-11-13T03:24:27.446Z,1.01
2022-11-13T03:24:58.855Z,1.13
2022-11-13T03:25:30.269Z,0.77
2022-11-13T03:26:01.671Z,0.87
2022-11-13T03:26:33.078Z,0.87
2022-11-13T03:27:04.471Z,1.12
2022-11-13T03:27:35.921Z,1.00
2022-11-13T03:28:07.315Z,1.11
2022-11-13T03:28:38.729Z,0.86
2022-11-13T03:29:10.203Z,1.00
2022-11-13T03:29:41.602Z,0.60
2022-11-13T03:30:13.070Z,0.82
2022-11-13T03:30:44.454Z,1.03
2022-11-13T03:31:15.847Z,1.06
2022-11-13T03:31:47.259Z,0.76
2022-11-13T03:32:18.655Z,0.90
2022-11-13T03:32:50.055Z,0.79
2022-11-13T03:33:21.461Z,1.07
2022-11-13T03:33:52.878Z,1.11
2022-11-13T03:34:24.355Z,0.95
2022-11-13T03:34:55.751Z,0.98
2022-11-13T03:35:30.782Z,1.10
2022-11-13T03:36:03.251Z,0.91
2022-11-13T03:36:34.655Z,0.94
2022-11-13T03:37:06.040Z,1.06
2022-11-13T03:37:37.428Z,1.06
2022-11-13T03:38:08.823Z,1.19
2022-11-13T03:38:40.206Z,1.15
2022-11-13T03:39:11.596Z,1.12
2022-11-13T03:39:43.125Z,1.07
2022-11-13T03:40:14.550Z,0.92
2022-11-13T03:40:45.936Z,0.84
2022-11-13T03:41:17.329Z,0.86
2022-11-13T03:41:48.719Z,0.92
2022-11-13T03:42:20.135Z,0.89
2022-11-13T03:42:51.528Z,1.07
2022-11-13T03:43:22.921Z,0.97
2022-11-13T03:43:54.336Z,0.96
2022-11-13T03:44:25.742Z,1.07
2022-11-13T03:44:57.195Z,0.87
2022-11-13T03:45:28.578Z,1.03
2022-11-13T03:45:59.991Z,1.02
2022-11-13T03:46:31.392Z,1.23
2022-11-13T03:47:02.804Z,1.20
2022-11-13T03:47:34.206Z,0.57
2022-11-13T03:48:05.594Z,0.81
2022-11-13T03:48:36.982Z,0.85
2022-11-13T03:49:08.378Z,0.89
2022-11-13T03:49:39.758Z,1.10
2022-11-13T03:50:11.244Z,0.75
2022-11-13T03:50:45.472Z,1.05
2022-11-13T03:51:17.215Z,1.09
2022-11-13T03:51:48.607Z,1.00
2022-11-13T03:52:20.006Z,0.80
2022-11-13T03:52:51.390Z,1.06
2022-11-13T03:53:22.790Z,0.88
2022-11-13T03:53:54.174Z,1.05
2022-11-13T03:54:25.579Z,0.97
2022-11-13T03:54:56.972Z,0.85
2022-11-13T03:55:28.475Z,0.84
2022-11-13T03:55:59.867Z,0.97
2022-11-13T03:56:31.268Z,0.96
2022-11-13T03:57:02.683Z,1.07
2022-11-13T03:57:34.071Z,0.99
2022-11-13T03:58:05.464Z,1.10
2022-11-13T03:58:40.135Z,1.11
2022-11-13T03:59:11.953Z,1.15
2022-11-13T03:59:43.342Z,0.97
2022-11-13T04:00:14.736Z,1.13
2022-11-13T04:00:46.220Z,1.26
2022-11-13T04:01:17.664Z,1.24
2022-11-13T04:01:49.184Z,0.81
2022-11-13T04:02:20.595Z,1.00
2022-11-13T04:02:51.986Z,0.92
2022-11-13T04:03:23.398Z,0.98
2022-11-13T04:03:54.792Z,0.95
2022-11-13T04:04:26.198Z,1.15
2022-11-13T04:04:57.640Z,1.27
2022-11-13T04:05:29.056Z,1.30
2022-11-13T04:06:00.513Z,0.82
2022-11-13T04:06:31.900Z,1.02
2022-11-13T04:07:03.345Z,0.99
2022-11-13T04:07:34.778Z,1.06
2022-11-13T04:08:06.200Z,1.30
2022-11-13T04:08:37.597Z,0.86
2022-11-13T04:09:08.989Z,1.10
2022-11-13T04:09:40.374Z,0.85
2022-11-13T04:10:11.922Z,1.48
2022-11-13T04:10:43.306Z,1.12
2022-11-13T04:11:14.727Z,1.02
2022-11-13T04:11:46.125Z,1.23
2022-11-13T04:12:17.535Z,0.82
2022-11-13T04:12:48.924Z,1.05
2022-11-13T04:13:20.340Z,1.14
2022-11-13T04:13:51.725Z,1.11
2022-11-13T04:14:23.119Z,0.80
2022-11-13T04:14:54.514Z,0.96
2022-11-13T04:15:25.912Z,0.88
2022-11-13T04:15:57.326Z,1.00
2022-11-13T04:16:28.817Z,0.93
2022-11-13T04:17:00.202Z,1.12
2022-11-13T04:17:31.595Z,1.00
2022-11-13T04:18:03.010Z,1.14
2022-11-13T04:18:34.403Z,0.84
2022-11-13T04:19:05.796Z,1.37
2022-11-13T04:19:37.178Z,1.24
2022-11-13T04:20:08.561Z,1.12
2022-11-13T04:20:39.972Z,0.92
2022-11-13T04:21:11.359Z,1.01
2022-11-13T04:21:42.864Z,0.95
2022-11-13T04:22:14.259Z,0.84
2022-11-13T04:22:45.653Z,1.06
2022-11-13T04:23:17.051Z,1.17
2022-11-13T04:23:48.458Z,1.10
2022-11-13T04:24:19.873Z,0.99
2022-11-13T04:24:51.267Z,1.08
2022-11-13T04:25:22.655Z,1.13
2022-11-13T04:25:54.040Z,1.08
2022-11-13T04:26:25.432Z,1.00
2022-11-13T04:26:56.939Z,0.81
2022-11-13T04:27:28.328Z,1.10
2022-11-13T04:27:59.747Z,1.18
2022-11-13T04:28:31.467Z,1.01
2022-11-13T04:29:03.117Z,1.07
2022-11-13T04:29:34.515Z,1.21
2022-11-13T04:30:05.922Z,1.02
2022-11-13T04:30:37.327Z,1.17
2022-11-13T04:31:08.741Z,1.08
2022-11-13T04:31:40.168Z,0.88
2022-11-13T04:32:11.595Z,1.10
2022-11-13T04:32:42.983Z,0.99
2022-11-13T04:33:14.480Z,1.23
2022-11-13T04:33:45.865Z,1.33
2022-11-13T04:34:17.261Z,0.99
2022-11-13T04:34:48.651Z,1.35
2022-11-13T04:35:20.048Z,0.90
2022-11-13T04:35:51.439Z,1.16
2022-11-13T04:36:22.826Z,1.09
2022-11-13T04:36:54.212Z,1.11
2022-11-13T04:37:25.663Z,1.10
2022-11-13T04:37:57.084Z,1.27
2022-11-13T04:38:28.796Z,1.03
2022-11-13T04:39:00.410Z,1.07
2022-11-13T04:39:31.801Z,0.89
2022-11-13T04:40:03.197Z,0.92
2022-11-13T04:40:34.594Z,1.09
2022-11-13T04:41:05.983Z,1.17
2022-11-13T04:41:37.425Z,0.91
2022-11-13T04:42:08.833Z,0.98
2022-11-13T04:42:40.339Z,1.25
2022-11-13T04:43:11.732Z,1.23
2022-11-13T04:43:43.148Z,1.29
2022-11-13T04:44:14.538Z,1.33
2022-11-13T04:44:45.932Z,1.03
2022-11-13T04:45:17.322Z,1.10
2022-11-13T04:45:48.715Z,1.20
2022-11-13T04:46:20.112Z,1.17
2022-11-13T04:46:51.523Z,1.08
2022-11-13T04:47:22.906Z,0.92
2022-11-13T04:47:54.419Z,1.26
2022-11-13T04:48:26.033Z,1.12
2022-11-13T04:48:57.633Z,1.28
2022-11-13T04:49:29.019Z,1.40
2022-11-13T04:50:00.453Z,1.29
2022-11-13T04:50:31.886Z,1.23
2022-11-13T04:51:03.270Z,1.00
2022-11-13T04:51:34.673Z,0.95
2022-11-13T04:52:06.078Z,1.01
2022-11-13T04:52:37.458Z,0.99
2022-11-13T04:53:08.980Z,1.20
2022-11-13T04:53:40.362Z,1.36
2022-11-13T04:54:11.779Z,1.19
2022-11-13T04:54:43.164Z,1.24
2022-11-13T04:55:14.550Z,1.15
2022-11-13T04:55:45.943Z,1.18
2022-11-13T04:56:17.330Z,1.19
2022-11-13T04:56:48.719Z,1.37
2022-11-13T04:57:20.099Z,1.21
2022-11-13T04:57:51.630Z,1.15
2022-11-13T04:58:23.282Z,1.17
2022-11-13T04:58:54.687Z,1.52
2022-11-13T04:59:26.070Z,1.39
2022-11-13T04:59:57.463Z,1.09
2022-11-13T05:00:28.855Z,0.98
2022-11-13T05:01:00.248Z,1.19
2022-11-13T05:01:31.695Z,1.23
2022-11-13T05:02:03.136Z,1.33
2022-11-13T05:02:34.596Z,0.98
2022-11-13T05:03:06.006Z,1.40
2022-11-13T05:03:37.439Z,1.20
2022-11-13T05:04:08.828Z,1.32
2022-11-13T05:04:40.252Z,1.48
2022-11-13T05:05:11.641Z,1.43
2022-11-13T05:05:43.031Z,1.27
2022-11-13T05:06:14.423Z,1.59
2022-11-13T05:06:45.867Z,1.30
2022-11-13T05:07:17.302Z,1.28
2022-11-13T05:07:48.707Z,1.08
2022-11-13T05:08:20.098Z,0.91
2022-11-13T05:08:51.551Z,1.29
2022-11-13T05:09:22.957Z,1.12
2022-11-13T05:09:54.360Z,1.14
2022-11-13T05:10:25.755Z,1.12
2022-11-13T05:10:57.147Z,1.15
2022-11-13T05:11:28.535Z,0.97
2022-11-13T05:11:59.924Z,1.04
2022-11-13T05:12:31.338Z,1.08
2022-11-13T05:13:02.762Z,1.44
2022-11-13T05:13:34.163Z,1.33
2022-11-13T05:14:05.615Z,1.19
2022-11-13T05:14:37.004Z,1.68
2022-11-13T05:15:08.423Z,1.35
2022-11-13T05:15:39.807Z,1.25
2022-11-13T05:16:11.196Z,0.90
2022-11-13T05:16:42.588Z,1.29
2022-11-13T05:17:13.985Z,1.22
2022-11-13T05:17:45.389Z,1.28
2022-11-13T05:18:16.781Z,1.25
2022-11-13T05:18:48.195Z,1.22
2022-11-13T05:19:19.699Z,0.87
2022-11-13T05:19:51.091Z,1.30
2022-11-13T05:20:22.498Z,1.19
2022-11-13T05:20:53.907Z,1.04
2022-11-13T05:21:25.323Z,0.77
2022-11-13T05:21:56.736Z,1.04
2022-11-13T05:22:28.127Z,1.07
2022-11-13T05:22:59.616Z,1.00
2022-11-13T05:23:31.007Z,1.32
2022-11-13T05:24:02.401Z,1.28
2022-11-13T05:24:33.856Z,1.02
2022-11-13T05:25:05.314Z,1.41
2022-11-13T05:25:36.731Z,1.19
2022-11-13T05:26:08.119Z,1.13
2022-11-13T05:26:39.522Z,1.56
2022-11-13T05:27:16.879Z,1.27
2022-11-13T05:27:48.815Z,1.10
2022-11-13T05:28:20.199Z,1.07
2022-11-13T05:28:51.595Z,0.81
2022-11-13T05:29:23.115Z,1.21
2022-11-13T05:29:54.506Z,1.17
2022-11-13T05:30:25.924Z,1.35
2022-11-13T05:30:57.322Z,0.92
2022-11-13T05:31:28.719Z,1.07
2022-11-13T05:32:00.114Z,0.86
2022-11-13T05:32:31.502Z,1.11
2022-11-13T05:33:02.899Z,1.35
2022-11-13T05:33:34.296Z,1.23
2022-11-13T05:34:06.224Z,1.37
2022-11-13T05:34:37.782Z,1.11
2022-11-13T05:35:09.193Z,1.54
2022-11-13T05:35:40.578Z,1.14
2022-11-13T05:36:11.971Z,1.09
2022-11-13T05:36:43.355Z,1.36
2022-11-13T05:37:14.747Z,1.21
2022-11-13T05:37:46.134Z,1.49
2022-11-13T05:38:17.520Z,1.31
2022-11-13T05:38:48.938Z,1.51
2022-11-13T05:39:20.330Z,0.97
2022-11-13T05:39:51.851Z,1.23
2022-11-13T05:40:23.244Z,1.42
2022-11-13T05:40:54.631Z,1.43
2022-11-13T05:41:26.023Z,1.36
2022-11-13T05:41:57.416Z,1.19
2022-11-13T05:42:28.803Z,1.26
2022-11-13T05:43:00.216Z,1.16
2022-11-13T05:43:31.607Z,1.17
2022-11-13T05:44:03.010Z,1.39
2022-11-13T05:44:34.426Z,1.48
2022-11-13T05:45:05.876Z,1.10
2022-11-13T05:45:37.287Z,1.14
2022-11-13T05:46:08.674Z,1.29
2022-11-13T05:46:40.070Z,1.23
2022-11-13T05:47:11.482Z,1.27
2022-11-13T05:47:42.871Z,1.28
2022-11-13T05:48:14.288Z,1.24
2022-11-13T05:48:45.676Z,1.19
2022-11-13T05:49:17.076Z,1.19
2022-11-13T05:49:48.472Z,1.27
2022-11-13T05:50:19.959Z,1.52
2022-11-13T05:50:51.362Z,1.26
2022-11-13T05:51:22.751Z,1.35
2022-11-13T05:51:54.154Z,1.54
2022-11-13T05:52:25.543Z,1.26
2022-11-13T05:52:56.940Z,1.39
2022-11-13T05:53:28.331Z,1.20
2022-11-13T05:53:59.727Z,1.06
2022-11-13T05:54:31.138Z,1.14
2022-11-13T05:55:02.553Z,1.15
2022-11-13T05:55:34.004Z,1.38
2022-11-13T05:56:05.395Z,1.16
2022-11-13T05:56:36.784Z,1.41
2022-11-13T05:57:08.183Z,1.22
2022-11-13T05:57:39.574Z,1.50
2022-11-13T05:58:10.967Z,1.48
2022-11-13T05:58:42.367Z,1.64
2022-11-13T05:59:13.759Z,1.64
2022-11-13T05:59:45.155Z,1.69
2022-11-13T06:00:16.594Z,1.32
2022-11-13T06:00:48.078Z,1.44
2022-11-13T06:01:19.466Z,1.39
2022-11-13T06:01:50.955Z,1.23
2022-11-13T06:02:22.421Z,1.61
2022-11-13T06:02:54.031Z,2.04
2022-11-13T06:03:25.449Z,1.68
2022-11-13T06:03:56.854Z,1.30
2022-11-13T06:04:28.274Z,1.47
2022-11-13T06:04:59.671Z,1.06
2022-11-13T06:05:31.079Z,1.22
2022-11-13T06:06:02.556Z,1.61
2022-11-13T06:06:33.966Z,1.33
2022-11-13T06:07:05.405Z,1.32
2022-11-13T06:07:36.822Z,1.24
2022-11-13T06:08:08.214Z,1.09
2022-11-13T06:08:39.625Z,1.34
2022-11-13T06:09:11.022Z,1.09
2022-11-13T06:09:42.417Z,1.14
2022-11-13T06:10:13.831Z,0.81
2022-11-13T06:10:45.226Z,1.13
2022-11-13T06:11:16.823Z,1.47
2022-11-13T06:11:48.220Z,1.41
2022-11-13T06:12:19.639Z,1.54
2022-11-13T06:12:51.049Z,1.20
2022-11-13T06:13:22.440Z,0.94
2022-11-13T06:13:53.839Z,1.14
2022-11-13T06:14:25.259Z,1.23
2022-11-13T06:14:56.652Z,1.04
2022-11-13T06:15:28.038Z,1.44
2022-11-13T06:15:59.435Z,1.38
2022-11-13T06:16:30.879Z,1.53
2022-11-13T06:17:02.495Z,1.03
2022-11-13T06:17:33.915Z,1.30
2022-11-13T06:18:05.306Z,1.05
2022-11-13T06:18:36.698Z,1.12
2022-11-13T06:19:08.087Z,1.37
2022-11-13T06:19:39.503Z,1.27
2022-11-13T06:20:10.886Z,1.23
2022-11-13T06:20:42.290Z,1.11
2022-11-13T06:21:13.704Z,1.07
2022-11-13T06:21:45.162Z,1.47
2022-11-13T06:22:16.551Z,1.12
2022-11-13T06:22:47.961Z,1.14
2022-11-13T06:23:19.351Z,1.41
2022-11-13T06:23:50.743Z,1.40
2022-11-13T06:24:22.143Z,1.22
2022-11-13T06:24:53.527Z,1.32
2022-11-13T06:25:24.915Z,1.27
2022-11-13T06:25:56.323Z,1.28
2022-11-13T06:26:27.763Z,1.43
2022-11-13T06:26:59.185Z,1.00
2022-11-13T06:27:30.582Z,1.27
2022-11-13T06:28:01.977Z,1.09
2022-11-13T06:28:33.369Z,1.25
2022-11-13T06:29:04.762Z,1.58
2022-11-13T06:29:36.164Z,1.11
2022-11-13T06:30:07.546Z,1.13
2022-11-13T06:30:38.952Z,1.36
2022-11-13T06:31:10.495Z,1.38
2022-11-13T06:31:41.927Z,1.52
2022-11-13T06:32:13.320Z,1.43
2022-11-13T06:32:44.727Z,1.31
2022-11-13T06:33:16.138Z,1.57
2022-11-13T06:33:47.525Z,1.32
2022-11-13T06:34:18.911Z,0.99
2022-11-13T06:34:50.321Z,1.38
2022-11-13T06:35:21.721Z,1.58
2022-11-13T06:35:53.131Z,1.31
2022-11-13T06:36:24.539Z,1.49
2022-11-13T06:36:55.960Z,1.31
2022-11-13T06:37:29.624Z,1.35
2022-11-13T06:38:03.988Z,1.38
2022-11-13T06:38:35.418Z,1.42
2022-11-13T06:39:06.954Z,1.53
2022-11-13T06:39:38.389Z,1.53
2022-11-13T06:40:09.783Z,1.28
2022-11-13T06:40:41.176Z,1.52
2022-11-13T06:41:12.698Z,1.04
2022-11-13T06:41:44.135Z,1.41
2022-11-13T06:42:15.552Z,1.06
2022-11-13T06:42:46.949Z,1.08
2022-11-13T06:43:18.550Z,1.42
2022-11-13T06:43:49.948Z,1.13
2022-11-13T06:44:21.334Z,1.04
2022-11-13T06:44:52.776Z,1.37
2022-11-13T06:45:24.188Z,1.18
2022-11-13T06:45:55.588Z,0.93
2022-11-13T06:46:26.993Z,1.14
2022-11-13T06:46:58.515Z,1.31
2022-11-13T06:47:29.902Z,1.18
2022-11-13T06:48:01.330Z,1.38
2022-11-13T06:48:32.728Z,1.41
2022-11-13T06:49:04.121Z,1.46
2022-11-13T06:49:35.518Z,1.35
2022-11-13T06:50:06.916Z,1.20
2022-11-13T06:50:38.302Z,1.21
2022-11-13T06:51:09.687Z,1.32
2022-11-13T06:51:41.074Z,1.51
2022-11-13T06:52:12.564Z,1.27
2022-11-13T06:52:43.951Z,1.13
2022-11-13T06:53:15.358Z,1.34
2022-11-13T06:53:46.752Z,1.31
2022-11-13T06:54:18.197Z,1.27
2022-11-13T06:54:49.651Z,1.38
2022-11-13T06:55:21.035Z,1.34
2022-11-13T06:55:52.455Z,1.30
2022-11-13T06:56:23.839Z,1.40
2022-11-13T06:56:55.229Z,1.63
2022-11-13T06:57:26.724Z,1.48
2022-11-13T06:57:58.119Z,1.11
2022-11-13T06:58:29.872Z,1.24
2022-11-13T06:59:03.162Z,1.24
2022-11-13T06:59:37.734Z,1.13
2022-11-13T07:00:09.118Z,1.37
2022-11-13T07:00:40.747Z,1.49